sensor_id;sensor_type;location;lat;lon;timestamp;temperature;humidity
26212;DHT22;13951;49.516;6.094;2023-02-05T00:00:49;7.30;99.90
26212;DHT22;13951;49.516;6.094;2023-02-05T00:03:21;7.30;99.90
26212;DHT22;13951;49.516;6.094;2023-02-05T00:05:54;7.30;99.90
26212;DHT22;13951;49.516;6.094;2023-02-05T00:08:27;7.30;99.90
26212;DHT22;13951;49.516;6.094;2023-02-05T00:11:03;7.30;99.90
26212;DHT22;13951;49.516;6.094;2023-02-05T00:13:41;7.30;99.90
26212;DHT22;13951;49.516;6.094;2023-02-05T00:16:18;7.30;99.90
26212;DHT22;13951;49.516;6.094;2023-02-05T00:18:51;7.30;99.90
26212;DHT22;13951;49.516;6.094;2023-02-05T00:21:24;7.30;99.90
26212;DHT22;13951;49.516;6.094;2023-02-05T00:23:56;7.30;99.90
26212;DHT22;13951;49.516;6.094;2023-02-05T00:26:29;7.30;99.90
26212;DHT22;13951;49.516;6.094;2023-02-05T00:29:03;7.30;99.90
26212;DHT22;13951;49.516;6.094;2023-02-05T00:31:36;7.20;99.90
26212;DHT22;13951;49.516;6.094;2023-02-05T00:34:17;7.20;99.90
26212;DHT22;13951;49.516;6.094;2023-02-05T00:37:08;7.20;99.90
26212;DHT22;13951;49.516;6.094;2023-02-05T00:39:40;7.30;99.90
26212;DHT22;13951;49.516;6.094;2023-02-05T00:42:13;7.20;99.90
26212;DHT22;13951;49.516;6.094;2023-02-05T00:44:49;7.30;99.90
26212;DHT22;13951;49.516;6.094;2023-02-05T00:47:22;7.30;99.90
26212;DHT22;13951;49.516;6.094;2023-02-05T00:49:55;7.30;99.90
26212;DHT22;13951;49.516;6.094;2023-02-05T00:52:27;7.30;99.90
26212;DHT22;13951;49.516;6.094;2023-02-05T00:55:00;7.30;99.90
26212;DHT22;13951;49.516;6.094;2023-02-05T00:57:33;7.30;99.90
26212;DHT22;13951;49.516;6.094;2023-02-05T01:00:06;7.30;99.90
26212;DHT22;13951;49.516;6.094;2023-02-05T01:02:40;7.30;99.90
26212;DHT22;13951;49.516;6.094;2023-02-05T01:05:13;7.40;99.90
26212;DHT22;13951;49.516;6.094;2023-02-05T01:07:46;7.30;99.90
26212;DHT22;13951;49.516;6.094;2023-02-05T01:10:18;7.30;99.90
26212;DHT22;13951;49.516;6.094;2023-02-05T01:12:52;7.30;99.90
26212;DHT22;13951;49.516;6.094;2023-02-05T01:15:24;7.40;99.90
26212;DHT22;13951;49.516;6.094;2023-02-05T01:17:57;7.30;99.90
26212;DHT22;13951;49.516;6.094;2023-02-05T01:20:31;7.30;99.90
26212;DHT22;13951;49.516;6.094;2023-02-05T01:23:04;7.30;99.90
26212;DHT22;13951;49.516;6.094;2023-02-05T01:25:37;7.30;99.90
26212;DHT22;13951;49.516;6.094;2023-02-05T01:28:13;7.30;99.90
26212;DHT22;13951;49.516;6.094;2023-02-05T01:30:47;7.30;99.90
26212;DHT22;13951;49.516;6.094;2023-02-05T01:33:20;7.30;99.90
26212;DHT22;13951;49.516;6.094;2023-02-05T01:35:53;7.30;99.90
26212;DHT22;13951;49.516;6.094;2023-02-05T01:38:26;7.40;99.90
26212;DHT22;13951;49.516;6.094;2023-02-05T01:40:58;7.30;99.90
26212;DHT22;13951;49.516;6.094;2023-02-05T01:43:31;7.30;99.90
26212;DHT22;13951;49.516;6.094;2023-02-05T01:48:46;7.40;99.90
26212;DHT22;13951;49.516;6.094;2023-02-05T01:51:22;7.40;99.90
26212;DHT22;13951;49.516;6.094;2023-02-05T01:53:56;7.30;99.90
26212;DHT22;13951;49.516;6.094;2023-02-05T01:56:33;7.30;99.90
26212;DHT22;13951;49.516;6.094;2023-02-05T01:59:16;7.30;99.90
26212;DHT22;13951;49.516;6.094;2023-02-05T02:01:50;7.30;99.90
26212;DHT22;13951;49.516;6.094;2023-02-05T02:04:51;7.30;99.90
26212;DHT22;13951;49.516;6.094;2023-02-05T02:07:24;7.30;99.90
26212;DHT22;13951;49.516;6.094;2023-02-05T02:09:57;7.30;99.90
26212;DHT22;13951;49.516;6.094;2023-02-05T02:12:33;7.30;99.90
26212;DHT22;13951;49.516;6.094;2023-02-05T02:15:12;7.30;99.90
26212;DHT22;13951;49.516;6.094;2023-02-05T02:17:49;7.20;99.90
26212;DHT22;13951;49.516;6.094;2023-02-05T02:20:30;7.20;99.90
26212;DHT22;13951;49.516;6.094;2023-02-05T02:23:24;7.20;99.90
26212;DHT22;13951;49.516;6.094;2023-02-05T02:29:01;7.10;99.90
26212;DHT22;13951;49.516;6.094;2023-02-05T02:31:43;7.10;99.90
26212;DHT22;13951;49.516;6.094;2023-02-05T02:34:26;7.10;99.90
26212;DHT22;13951;49.516;6.094;2023-02-05T02:37:07;7.10;99.90
26212;DHT22;13951;49.516;6.094;2023-02-05T02:39:47;7.00;99.90
26212;DHT22;13951;49.516;6.094;2023-02-05T02:42:28;7.00;99.90
26212;DHT22;13951;49.516;6.094;2023-02-05T02:45:08;7.00;99.90
26212;DHT22;13951;49.516;6.094;2023-02-05T02:47:51;7.00;99.90
26212;DHT22;13951;49.516;6.094;2023-02-05T02:50:28;7.00;99.90
26212;DHT22;13951;49.516;6.094;2023-02-05T02:53:16;7.00;99.90
26212;DHT22;13951;49.516;6.094;2023-02-05T02:55:51;7.00;99.90
26212;DHT22;13951;49.516;6.094;2023-02-05T03:01:03;7.00;99.90
26212;DHT22;13951;49.516;6.094;2023-02-05T03:03:41;7.00;99.90
26212;DHT22;13951;49.516;6.094;2023-02-05T03:06:16;7.00;99.90
26212;DHT22;13951;49.516;6.094;2023-02-05T03:08:57;7.00;99.90
26212;DHT22;13951;49.516;6.094;2023-02-05T03:11:31;7.00;99.90
26212;DHT22;13951;49.516;6.094;2023-02-05T03:14:04;7.00;99.90
26212;DHT22;13951;49.516;6.094;2023-02-05T03:16:41;7.00;99.90
26212;DHT22;13951;49.516;6.094;2023-02-05T03:19:14;7.00;99.90
26212;DHT22;13951;49.516;6.094;2023-02-05T03:21:50;7.00;99.90
26212;DHT22;13951;49.516;6.094;2023-02-05T03:24:26;7.00;99.90
26212;DHT22;13951;49.516;6.094;2023-02-05T03:27:00;7.00;99.90
26212;DHT22;13951;49.516;6.094;2023-02-05T03:29:36;7.00;99.90
26212;DHT22;13951;49.516;6.094;2023-02-05T03:35:39;7.10;99.90
26212;DHT22;13951;49.516;6.094;2023-02-05T03:38:37;7.10;99.90
26212;DHT22;13951;49.516;6.094;2023-02-05T03:41:26;7.10;99.90
26212;DHT22;13951;49.516;6.094;2023-02-05T03:48:03;7.00;99.90
26212;DHT22;13951;49.516;6.094;2023-02-05T03:56:52;7.10;99.90
26212;DHT22;13951;49.516;6.094;2023-02-05T03:59:27;7.10;99.90
26212;DHT22;13951;49.516;6.094;2023-02-05T04:02:01;7.10;99.90
26212;DHT22;13951;49.516;6.094;2023-02-05T04:04:40;7.10;99.90
26212;DHT22;13951;49.516;6.094;2023-02-05T04:07:14;7.00;99.90
26212;DHT22;13951;49.516;6.094;2023-02-05T04:09:47;7.00;99.90
26212;DHT22;13951;49.516;6.094;2023-02-05T04:12:20;6.90;99.90
26212;DHT22;13951;49.516;6.094;2023-02-05T04:14:53;6.90;99.90
26212;DHT22;13951;49.516;6.094;2023-02-05T04:17:25;6.90;99.90
26212;DHT22;13951;49.516;6.094;2023-02-05T04:19:58;6.90;99.90
26212;DHT22;13951;49.516;6.094;2023-02-05T04:22:31;7.00;99.90
26212;DHT22;13951;49.516;6.094;2023-02-05T04:25:04;7.00;99.90
26212;DHT22;13951;49.516;6.094;2023-02-05T04:27:38;7.00;99.90
26212;DHT22;13951;49.516;6.094;2023-02-05T04:30:11;7.00;99.90
26212;DHT22;13951;49.516;6.094;2023-02-05T04:32:48;7.00;99.90
26212;DHT22;13951;49.516;6.094;2023-02-05T04:35:22;7.00;99.90
26212;DHT22;13951;49.516;6.094;2023-02-05T04:37:55;7.00;99.90
26212;DHT22;13951;49.516;6.094;2023-02-05T04:40:28;7.00;99.90
26212;DHT22;13951;49.516;6.094;2023-02-05T04:43:01;7.00;99.90
26212;DHT22;13951;49.516;6.094;2023-02-05T04:45:35;7.00;99.90
26212;DHT22;13951;49.516;6.094;2023-02-05T04:48:08;7.00;99.90
26212;DHT22;13951;49.516;6.094;2023-02-05T04:50:40;7.00;99.90
26212;DHT22;13951;49.516;6.094;2023-02-05T04:53:13;7.00;99.90
26212;DHT22;13951;49.516;6.094;2023-02-05T04:55:46;7.00;99.90
26212;DHT22;13951;49.516;6.094;2023-02-05T04:58:19;7.00;99.90
26212;DHT22;13951;49.516;6.094;2023-02-05T05:00:52;7.00;99.90
26212;DHT22;13951;49.516;6.094;2023-02-05T05:03:25;7.00;99.90
26212;DHT22;13951;49.516;6.094;2023-02-05T05:06:03;6.90;99.90
26212;DHT22;13951;49.516;6.094;2023-02-05T05:08:36;6.90;99.90
26212;DHT22;13951;49.516;6.094;2023-02-05T05:11:11;6.90;99.90
26212;DHT22;13951;49.516;6.094;2023-02-05T05:13:44;6.90;99.90
26212;DHT22;13951;49.516;6.094;2023-02-05T05:16:17;6.90;99.90
26212;DHT22;13951;49.516;6.094;2023-02-05T05:18:51;6.90;99.90
26212;DHT22;13951;49.516;6.094;2023-02-05T05:21:24;6.90;99.90
26212;DHT22;13951;49.516;6.094;2023-02-05T05:23:56;6.80;99.90
26212;DHT22;13951;49.516;6.094;2023-02-05T05:26:29;6.80;99.90
26212;DHT22;13951;49.516;6.094;2023-02-05T05:29:02;6.70;99.90
26212;DHT22;13951;49.516;6.094;2023-02-05T05:31:35;6.80;99.90
26212;DHT22;13951;49.516;6.094;2023-02-05T05:34:07;6.70;99.90
26212;DHT22;13951;49.516;6.094;2023-02-05T05:36:40;6.80;99.90
26212;DHT22;13951;49.516;6.094;2023-02-05T05:39:14;6.80;99.90
26212;DHT22;13951;49.516;6.094;2023-02-05T05:42:06;6.80;99.90
26212;DHT22;13951;49.516;6.094;2023-02-05T05:44:57;6.80;99.90
26212;DHT22;13951;49.516;6.094;2023-02-05T05:47:30;6.80;99.90
26212;DHT22;13951;49.516;6.094;2023-02-05T05:50:03;6.80;99.90
26212;DHT22;13951;49.516;6.094;2023-02-05T05:52:35;6.80;99.90
26212;DHT22;13951;49.516;6.094;2023-02-05T05:55:08;6.80;99.90
26212;DHT22;13951;49.516;6.094;2023-02-05T05:57:41;6.70;99.90
26212;DHT22;13951;49.516;6.094;2023-02-05T06:00:14;6.80;99.90
26212;DHT22;13951;49.516;6.094;2023-02-05T06:02:47;6.80;99.90
26212;DHT22;13951;49.516;6.094;2023-02-05T06:05:19;6.70;99.90
26212;DHT22;13951;49.516;6.094;2023-02-05T06:07:52;6.80;99.90
26212;DHT22;13951;49.516;6.094;2023-02-05T06:10:25;6.80;99.90
26212;DHT22;13951;49.516;6.094;2023-02-05T06:12:59;6.80;99.90
26212;DHT22;13951;49.516;6.094;2023-02-05T06:15:32;6.80;99.90
26212;DHT22;13951;49.516;6.094;2023-02-05T06:18:05;6.80;99.90
26212;DHT22;13951;49.516;6.094;2023-02-05T06:20:38;6.70;99.90
26212;DHT22;13951;49.516;6.094;2023-02-05T06:23:11;6.70;99.90
26212;DHT22;13951;49.516;6.094;2023-02-05T06:25:44;6.70;99.90
26212;DHT22;13951;49.516;6.094;2023-02-05T06:28:17;6.70;99.90
26212;DHT22;13951;49.516;6.094;2023-02-05T06:30:51;6.70;99.90
26212;DHT22;13951;49.516;6.094;2023-02-05T06:33:24;6.70;99.90
26212;DHT22;13951;49.516;6.094;2023-02-05T06:35:56;6.70;99.90
26212;DHT22;13951;49.516;6.094;2023-02-05T06:38:29;6.70;99.90
26212;DHT22;13951;49.516;6.094;2023-02-05T06:41:02;6.70;99.90
26212;DHT22;13951;49.516;6.094;2023-02-05T06:43:35;6.70;99.90
26212;DHT22;13951;49.516;6.094;2023-02-05T06:46:08;6.70;99.90
26212;DHT22;13951;49.516;6.094;2023-02-05T06:48:41;6.70;99.90
26212;DHT22;13951;49.516;6.094;2023-02-05T06:51:14;6.60;99.90
26212;DHT22;13951;49.516;6.094;2023-02-05T06:53:46;6.60;99.90
26212;DHT22;13951;49.516;6.094;2023-02-05T06:56:19;6.60;99.90
26212;DHT22;13951;49.516;6.094;2023-02-05T06:58:52;6.60;99.90
26212;DHT22;13951;49.516;6.094;2023-02-05T07:01:25;6.60;99.90
26212;DHT22;13951;49.516;6.094;2023-02-05T07:03:57;6.60;99.90
26212;DHT22;13951;49.516;6.094;2023-02-05T07:06:30;6.60;99.90
26212;DHT22;13951;49.516;6.094;2023-02-05T07:09:03;6.60;99.90
26212;DHT22;13951;49.516;6.094;2023-02-05T07:11:36;6.50;99.90
26212;DHT22;13951;49.516;6.094;2023-02-05T07:14:08;6.60;99.90
26212;DHT22;13951;49.516;6.094;2023-02-05T07:16:41;6.60;99.90
26212;DHT22;13951;49.516;6.094;2023-02-05T07:19:14;6.60;99.90
26212;DHT22;13951;49.516;6.094;2023-02-05T07:21:47;6.60;99.90
26212;DHT22;13951;49.516;6.094;2023-02-05T07:24:19;6.50;99.90
26212;DHT22;13951;49.516;6.094;2023-02-05T07:26:52;6.60;99.90
26212;DHT22;13951;49.516;6.094;2023-02-05T07:29:25;6.60;99.90
26212;DHT22;13951;49.516;6.094;2023-02-05T07:31:58;6.60;99.90
26212;DHT22;13951;49.516;6.094;2023-02-05T07:34:31;6.60;99.90
26212;DHT22;13951;49.516;6.094;2023-02-05T07:37:04;6.60;99.90
26212;DHT22;13951;49.516;6.094;2023-02-05T07:39:37;6.60;99.90
26212;DHT22;13951;49.516;6.094;2023-02-05T07:42:10;6.60;99.90
26212;DHT22;13951;49.516;6.094;2023-02-05T07:44:49;6.60;99.90
26212;DHT22;13951;49.516;6.094;2023-02-05T07:47:21;6.60;99.90
26212;DHT22;13951;49.516;6.094;2023-02-05T07:49:54;6.70;99.90
26212;DHT22;13951;49.516;6.094;2023-02-05T07:52:27;6.70;99.90
26212;DHT22;13951;49.516;6.094;2023-02-05T07:55:00;6.70;99.90
26212;DHT22;13951;49.516;6.094;2023-02-05T07:57:32;6.70;99.90
26212;DHT22;13951;49.516;6.094;2023-02-05T08:00:06;6.70;99.90
26212;DHT22;13951;49.516;6.094;2023-02-05T08:02:43;6.60;99.90
26212;DHT22;13951;49.516;6.094;2023-02-05T08:05:16;6.60;99.90
26212;DHT22;13951;49.516;6.094;2023-02-05T08:07:49;6.60;99.90
26212;DHT22;13951;49.516;6.094;2023-02-05T08:10:21;6.60;99.90
26212;DHT22;13951;49.516;6.094;2023-02-05T08:12:54;6.60;99.90
26212;DHT22;13951;49.516;6.094;2023-02-05T08:15:27;6.60;99.90
26212;DHT22;13951;49.516;6.094;2023-02-05T08:18:00;6.60;99.90
26212;DHT22;13951;49.516;6.094;2023-02-05T08:20:32;6.70;99.90
26212;DHT22;13951;49.516;6.094;2023-02-05T08:23:05;6.70;99.90
26212;DHT22;13951;49.516;6.094;2023-02-05T08:25:38;6.60;99.90
26212;DHT22;13951;49.516;6.094;2023-02-05T08:28:11;6.70;99.90
26212;DHT22;13951;49.516;6.094;2023-02-05T08:30:44;6.70;99.90
26212;DHT22;13951;49.516;6.094;2023-02-05T08:33:17;6.80;99.90
26212;DHT22;13951;49.516;6.094;2023-02-05T08:35:50;6.80;99.90
26212;DHT22;13951;49.516;6.094;2023-02-05T08:38:23;6.80;99.90
26212;DHT22;13951;49.516;6.094;2023-02-05T08:40:55;6.90;99.90
26212;DHT22;13951;49.516;6.094;2023-02-05T08:43:29;6.90;99.90
26212;DHT22;13951;49.516;6.094;2023-02-05T08:46:03;6.90;99.90
26212;DHT22;13951;49.516;6.094;2023-02-05T08:48:36;6.90;99.90
26212;DHT22;13951;49.516;6.094;2023-02-05T08:51:10;6.90;99.90
26212;DHT22;13951;49.516;6.094;2023-02-05T08:53:43;7.00;99.90
26212;DHT22;13951;49.516;6.094;2023-02-05T08:56:16;7.00;99.90
26212;DHT22;13951;49.516;6.094;2023-02-05T08:58:51;7.00;99.90
26212;DHT22;13951;49.516;6.094;2023-02-05T09:01:24;7.00;99.90
26212;DHT22;13951;49.516;6.094;2023-02-05T09:03:57;7.00;99.90
26212;DHT22;13951;49.516;6.094;2023-02-05T09:06:30;7.00;99.90
26212;DHT22;13951;49.516;6.094;2023-02-05T09:09:03;7.00;99.90
26212;DHT22;13951;49.516;6.094;2023-02-05T09:11:36;6.90;99.90
26212;DHT22;13951;49.516;6.094;2023-02-05T09:14:09;7.00;99.90
26212;DHT22;13951;49.516;6.094;2023-02-05T09:16:42;7.00;99.90
26212;DHT22;13951;49.516;6.094;2023-02-05T09:19:14;7.00;99.90
26212;DHT22;13951;49.516;6.094;2023-02-05T09:21:47;6.90;99.90
26212;DHT22;13951;49.516;6.094;2023-02-05T09:24:20;6.90;99.90
26212;DHT22;13951;49.516;6.094;2023-02-05T09:26:53;6.90;99.90
26212;DHT22;13951;49.516;6.094;2023-02-05T09:29:27;6.90;99.90
26212;DHT22;13951;49.516;6.094;2023-02-05T09:32:01;6.90;99.90
26212;DHT22;13951;49.516;6.094;2023-02-05T09:34:33;6.90;99.90
26212;DHT22;13951;49.516;6.094;2023-02-05T09:37:06;7.00;99.90
26212;DHT22;13951;49.516;6.094;2023-02-05T09:39:39;6.90;99.90
26212;DHT22;13951;49.516;6.094;2023-02-05T09:45:57;7.00;99.90
26212;DHT22;13951;49.516;6.094;2023-02-05T09:48:39;7.00;99.90
26212;DHT22;13951;49.516;6.094;2023-02-05T09:51:20;7.00;99.90
26212;DHT22;13951;49.516;6.094;2023-02-05T09:53:56;7.10;99.90
26212;DHT22;13951;49.516;6.094;2023-02-05T09:56:31;7.10;99.90
26212;DHT22;13951;49.516;6.094;2023-02-05T09:59:15;7.10;99.90
26212;DHT22;13951;49.516;6.094;2023-02-05T10:04:25;7.10;99.90
26212;DHT22;13951;49.516;6.094;2023-02-05T10:07:20;7.10;99.90
26212;DHT22;13951;49.516;6.094;2023-02-05T10:10:15;7.20;99.90
26212;DHT22;13951;49.516;6.094;2023-02-05T10:16:27;7.20;99.90
26212;DHT22;13951;49.516;6.094;2023-02-05T10:28:14;7.20;99.90
26212;DHT22;13951;49.516;6.094;2023-02-05T10:30:56;7.30;99.90
26212;DHT22;13951;49.516;6.094;2023-02-05T10:33:52;7.40;99.90
26212;DHT22;13951;49.516;6.094;2023-02-05T10:36:28;7.40;99.90
26212;DHT22;13951;49.516;6.094;2023-02-05T10:39:05;7.40;99.90
26212;DHT22;13951;49.516;6.094;2023-02-05T10:44:27;7.50;99.90
26212;DHT22;13951;49.516;6.094;2023-02-05T10:47:10;7.50;99.90
26212;DHT22;13951;49.516;6.094;2023-02-05T10:49:54;7.60;99.90
26212;DHT22;13951;49.516;6.094;2023-02-05T10:52:30;7.60;99.90
26212;DHT22;13951;49.516;6.094;2023-02-05T10:55:03;7.50;99.90
26212;DHT22;13951;49.516;6.094;2023-02-05T10:57:36;7.50;99.90
26212;DHT22;13951;49.516;6.094;2023-02-05T11:00:20;7.40;99.90
26212;DHT22;13951;49.516;6.094;2023-02-05T11:02:54;7.40;99.90
26212;DHT22;13951;49.516;6.094;2023-02-05T11:05:35;7.40;99.90
26212;DHT22;13951;49.516;6.094;2023-02-05T11:08:35;7.50;99.90
26212;DHT22;13951;49.516;6.094;2023-02-05T11:11:20;7.50;99.90
26212;DHT22;13951;49.516;6.094;2023-02-05T11:14:00;7.50;99.90
26212;DHT22;13951;49.516;6.094;2023-02-05T11:16:40;7.40;99.90
26212;DHT22;13951;49.516;6.094;2023-02-05T11:19:25;7.40;99.90
26212;DHT22;13951;49.516;6.094;2023-02-05T11:22:01;7.30;99.90
26212;DHT22;13951;49.516;6.094;2023-02-05T11:24:36;7.30;99.90
26212;DHT22;13951;49.516;6.094;2023-02-05T11:27:29;7.30;99.90
26212;DHT22;13951;49.516;6.094;2023-02-05T11:30:23;7.30;99.90
26212;DHT22;13951;49.516;6.094;2023-02-05T11:38:42;7.50;99.90
26212;DHT22;13951;49.516;6.094;2023-02-05T11:41:36;7.50;99.90
26212;DHT22;13951;49.516;6.094;2023-02-05T11:44:25;7.50;99.90
26212;DHT22;13951;49.516;6.094;2023-02-05T11:47:02;7.60;99.90
26212;DHT22;13951;49.516;6.094;2023-02-05T11:49:37;7.50;99.90
26212;DHT22;13951;49.516;6.094;2023-02-05T11:52:24;7.60;99.90
26212;DHT22;13951;49.516;6.094;2023-02-05T11:54:57;7.60;99.90
26212;DHT22;13951;49.516;6.094;2023-02-05T11:57:36;7.60;99.90
26212;DHT22;13951;49.516;6.094;2023-02-05T12:00:21;7.60;99.90
26212;DHT22;13951;49.516;6.094;2023-02-05T12:03:09;7.80;99.90
26212;DHT22;13951;49.516;6.094;2023-02-05T12:05:53;7.80;99.90
26212;DHT22;13951;49.516;6.094;2023-02-05T12:08:49;7.70;99.90
26212;DHT22;13951;49.516;6.094;2023-02-05T12:11:44;7.70;99.90
26212;DHT22;13951;49.516;6.094;2023-02-05T12:15:02;7.60;99.90
26212;DHT22;13951;49.516;6.094;2023-02-05T12:17:41;7.60;99.90
26212;DHT22;13951;49.516;6.094;2023-02-05T12:20:41;7.50;99.90
26212;DHT22;13951;49.516;6.094;2023-02-05T12:26:43;7.50;99.90
26212;DHT22;13951;49.516;6.094;2023-02-05T12:29:37;7.60;99.90
26212;DHT22;13951;49.516;6.094;2023-02-05T12:41:44;7.80;99.90
26212;DHT22;13951;49.516;6.094;2023-02-05T12:59:17;8.60;99.90
26212;DHT22;13951;49.516;6.094;2023-02-05T13:01:55;8.80;99.90
26212;DHT22;13951;49.516;6.094;2023-02-05T13:04:40;8.60;99.90
26212;DHT22;13951;49.516;6.094;2023-02-05T13:07:39;8.40;99.90
26212;DHT22;13951;49.516;6.094;2023-02-05T13:10:21;8.20;99.90
26212;DHT22;13951;49.516;6.094;2023-02-05T13:12:59;8.10;99.90
26212;DHT22;13951;49.516;6.094;2023-02-05T13:15:39;7.90;99.90
26212;DHT22;13951;49.516;6.094;2023-02-05T13:20:53;7.60;99.90
26212;DHT22;13951;49.516;6.094;2023-02-05T13:23:45;7.70;99.90
26212;DHT22;13951;49.516;6.094;2023-02-05T13:26:41;7.90;99.90
26212;DHT22;13951;49.516;6.094;2023-02-05T13:29:43;7.90;99.90
26212;DHT22;13951;49.516;6.094;2023-02-05T13:32:20;7.90;99.90
26212;DHT22;13951;49.516;6.094;2023-02-05T13:34:55;7.80;99.90
26212;DHT22;13951;49.516;6.094;2023-02-05T13:44:00;7.70;99.90
26212;DHT22;13951;49.516;6.094;2023-02-05T13:46:53;7.70;99.90
26212;DHT22;13951;49.516;6.094;2023-02-05T13:55:35;7.80;99.90
26212;DHT22;13951;49.516;6.094;2023-02-05T13:58:21;7.80;99.90
26212;DHT22;13951;49.516;6.094;2023-02-05T14:01:13;7.80;99.90
26212;DHT22;13951;49.516;6.094;2023-02-05T14:04:05;7.70;99.90
26212;DHT22;13951;49.516;6.094;2023-02-05T14:06:39;7.60;99.90
26212;DHT22;13951;49.516;6.094;2023-02-05T14:09:23;7.60;99.90
26212;DHT22;13951;49.516;6.094;2023-02-05T14:12:04;7.50;99.90
26212;DHT22;13951;49.516;6.094;2023-02-05T14:14:39;7.50;99.90
26212;DHT22;13951;49.516;6.094;2023-02-05T14:22:58;7.30;99.90
26212;DHT22;13951;49.516;6.094;2023-02-05T14:30:56;7.20;99.90
26212;DHT22;13951;49.516;6.094;2023-02-05T14:33:37;7.20;99.90
26212;DHT22;13951;49.516;6.094;2023-02-05T14:41:27;7.20;99.90
26212;DHT22;13951;49.516;6.094;2023-02-05T14:44:12;7.20;99.90
26212;DHT22;13951;49.516;6.094;2023-02-05T14:49:27;7.10;99.90
26212;DHT22;13951;49.516;6.094;2023-02-05T14:52:24;7.10;99.90
26212;DHT22;13951;49.516;6.094;2023-02-05T14:57:48;7.00;99.90
26212;DHT22;13951;49.516;6.094;2023-02-05T15:00:31;7.00;99.90
26212;DHT22;13951;49.516;6.094;2023-02-05T15:03:24;7.00;99.90
26212;DHT22;13951;49.516;6.094;2023-02-05T15:06:04;7.00;99.90
26212;DHT22;13951;49.516;6.094;2023-02-05T15:08:48;7.00;99.90
26212;DHT22;13951;49.516;6.094;2023-02-05T15:11:32;7.00;99.90
26212;DHT22;13951;49.516;6.094;2023-02-05T15:19:44;7.00;99.90
26212;DHT22;13951;49.516;6.094;2023-02-05T15:22:39;7.00;99.90
26212;DHT22;13951;49.516;6.094;2023-02-05T15:25:33;7.00;99.90
26212;DHT22;13951;49.516;6.094;2023-02-05T15:28:17;7.00;99.90
26212;DHT22;13951;49.516;6.094;2023-02-05T15:31:01;7.00;99.90
26212;DHT22;13951;49.516;6.094;2023-02-05T15:33:43;7.00;99.90
26212;DHT22;13951;49.516;6.094;2023-02-05T15:36:24;6.90;99.90
26212;DHT22;13951;49.516;6.094;2023-02-05T15:39:22;6.90;99.90
26212;DHT22;13951;49.516;6.094;2023-02-05T15:41:58;6.90;99.90
26212;DHT22;13951;49.516;6.094;2023-02-05T15:44:34;6.90;99.90
26212;DHT22;13951;49.516;6.094;2023-02-05T15:47:12;6.80;99.90
26212;DHT22;13951;49.516;6.094;2023-02-05T15:49:51;6.80;99.90
26212;DHT22;13951;49.516;6.094;2023-02-05T15:52:27;6.80;99.90
26212;DHT22;13951;49.516;6.094;2023-02-05T15:55:09;6.90;99.90
26212;DHT22;13951;49.516;6.094;2023-02-05T15:57:43;6.80;99.90
26212;DHT22;13951;49.516;6.094;2023-02-05T16:00:21;6.80;99.90
26212;DHT22;13951;49.516;6.094;2023-02-05T16:02:58;6.80;99.90
26212;DHT22;13951;49.516;6.094;2023-02-05T16:05:31;6.80;99.90
26212;DHT22;13951;49.516;6.094;2023-02-05T16:08:16;6.80;99.90
26212;DHT22;13951;49.516;6.094;2023-02-05T16:10:55;6.80;99.90
26212;DHT22;13951;49.516;6.094;2023-02-05T16:13:33;6.80;99.90
26212;DHT22;13951;49.516;6.094;2023-02-05T16:16:16;6.80;99.90
26212;DHT22;13951;49.516;6.094;2023-02-05T16:18:58;6.80;99.90
26212;DHT22;13951;49.516;6.094;2023-02-05T16:21:37;6.80;99.90
26212;DHT22;13951;49.516;6.094;2023-02-05T16:24:21;6.80;99.90
26212;DHT22;13951;49.516;6.094;2023-02-05T16:29:38;6.80;99.90
26212;DHT22;13951;49.516;6.094;2023-02-05T16:32:38;6.80;99.90
26212;DHT22;13951;49.516;6.094;2023-02-05T16:35:27;6.70;99.90
26212;DHT22;13951;49.516;6.094;2023-02-05T16:38:02;6.80;99.90
26212;DHT22;13951;49.516;6.094;2023-02-05T16:40:43;6.80;99.90
26212;DHT22;13951;49.516;6.094;2023-02-05T16:43:36;6.80;99.90
26212;DHT22;13951;49.516;6.094;2023-02-05T16:51:50;6.60;99.90
26212;DHT22;13951;49.516;6.094;2023-02-05T16:54:26;6.70;99.90
26212;DHT22;13951;49.516;6.094;2023-02-05T17:02:27;6.60;99.90
26212;DHT22;13951;49.516;6.094;2023-02-05T17:05:04;6.50;99.90
26212;DHT22;13951;49.516;6.094;2023-02-05T17:07:38;6.60;99.90
26212;DHT22;13951;49.516;6.094;2023-02-05T17:10:16;6.60;99.90
26212;DHT22;13951;49.516;6.094;2023-02-05T17:12:54;6.60;99.90
26212;DHT22;13951;49.516;6.094;2023-02-05T17:15:31;6.50;99.90
26212;DHT22;13951;49.516;6.094;2023-02-05T17:18:24;6.50;99.90
26212;DHT22;13951;49.516;6.094;2023-02-05T17:21:19;6.50;99.90
26212;DHT22;13951;49.516;6.094;2023-02-05T17:23:53;6.50;99.90
26212;DHT22;13951;49.516;6.094;2023-02-05T17:26:30;6.40;99.90
26212;DHT22;13951;49.516;6.094;2023-02-05T17:29:06;6.40;99.90
26212;DHT22;13951;49.516;6.094;2023-02-05T17:31:39;6.40;99.90
26212;DHT22;13951;49.516;6.094;2023-02-05T17:34:12;6.40;99.90
26212;DHT22;13951;49.516;6.094;2023-02-05T17:36:45;6.40;99.90
26212;DHT22;13951;49.516;6.094;2023-02-05T17:39:18;6.40;99.90
26212;DHT22;13951;49.516;6.094;2023-02-05T17:41:51;6.40;99.90
26212;DHT22;13951;49.516;6.094;2023-02-05T17:44:35;6.30;99.90
26212;DHT22;13951;49.516;6.094;2023-02-05T17:47:08;6.30;99.90
26212;DHT22;13951;49.516;6.094;2023-02-05T17:49:41;6.30;99.90
26212;DHT22;13951;49.516;6.094;2023-02-05T17:52:14;6.30;99.90
26212;DHT22;13951;49.516;6.094;2023-02-05T17:54:47;6.30;99.90
26212;DHT22;13951;49.516;6.094;2023-02-05T17:57:21;6.30;99.90
26212;DHT22;13951;49.516;6.094;2023-02-05T17:59:54;6.30;99.90
26212;DHT22;13951;49.516;6.094;2023-02-05T18:02:37;6.30;99.90
26212;DHT22;13951;49.516;6.094;2023-02-05T18:05:10;6.30;99.90
26212;DHT22;13951;49.516;6.094;2023-02-05T18:07:51;6.30;99.90
26212;DHT22;13951;49.516;6.094;2023-02-05T18:10:27;6.30;99.90
26212;DHT22;13951;49.516;6.094;2023-02-05T18:13:00;6.30;99.90
26212;DHT22;13951;49.516;6.094;2023-02-05T18:15:32;6.30;99.90
26212;DHT22;13951;49.516;6.094;2023-02-05T18:18:05;6.30;99.90
26212;DHT22;13951;49.516;6.094;2023-02-05T18:20:38;6.30;99.90
26212;DHT22;13951;49.516;6.094;2023-02-05T18:23:11;6.30;99.90
26212;DHT22;13951;49.516;6.094;2023-02-05T18:25:50;6.30;99.90
26212;DHT22;13951;49.516;6.094;2023-02-05T18:28:23;6.30;99.90
26212;DHT22;13951;49.516;6.094;2023-02-05T18:31:02;6.20;99.90
26212;DHT22;13951;49.516;6.094;2023-02-05T18:33:36;6.20;99.90
26212;DHT22;13951;49.516;6.094;2023-02-05T18:36:11;6.20;99.90
26212;DHT22;13951;49.516;6.094;2023-02-05T18:38:44;6.20;99.90
26212;DHT22;13951;49.516;6.094;2023-02-05T18:41:19;6.20;99.90
26212;DHT22;13951;49.516;6.094;2023-02-05T18:43:56;6.20;99.90
26212;DHT22;13951;49.516;6.094;2023-02-05T18:46:29;6.20;99.90
26212;DHT22;13951;49.516;6.094;2023-02-05T18:49:02;6.20;99.90
26212;DHT22;13951;49.516;6.094;2023-02-05T18:51:35;6.20;99.90
26212;DHT22;13951;49.516;6.094;2023-02-05T18:54:09;6.20;99.90
26212;DHT22;13951;49.516;6.094;2023-02-05T18:56:43;6.20;99.90
26212;DHT22;13951;49.516;6.094;2023-02-05T18:59:17;6.20;99.90
26212;DHT22;13951;49.516;6.094;2023-02-05T19:01:55;6.20;99.90